createdAt,value
2022-09-22T00:03:12.257Z,1.55
2022-09-22T00:08:13.634Z,1.80
2022-09-22T00:13:14.996Z,1.45
2022-09-22T00:18:16.353Z,1.38
2022-09-22T00:23:17.767Z,1.42
2022-09-22T00:28:20.116Z,1.40
2022-09-22T00:33:21.481Z,1.40
2022-09-22T00:38:22.853Z,1.85
2022-09-22T00:43:25.858Z,1.60
2022-09-22T00:48:27.940Z,1.42
2022-09-22T00:53:29.297Z,1.50
2022-09-22T00:58:37.457Z,1.60
2022-09-22T01:03:39.104Z,1.30
2022-09-22T01:08:40.500Z,1.70
2022-09-22T01:13:54.780Z,1.52
2022-09-22T01:19:23.469Z,1.27
2022-09-22T01:24:47.624Z,1.20
2022-09-22T01:30:12.671Z,1.45
2022-09-22T01:35:42.708Z,1.23
2022-09-22T01:40:49.628Z,1.40
2022-09-22T01:45:50.989Z,1.30
2022-09-22T01:51:04.265Z,1.27
2022-09-22T01:56:06.340Z,1.40
2022-09-22T02:01:15.391Z,1.40
2022-09-22T02:06:20.460Z,1.50
2022-09-22T02:11:21.949Z,1.33
2022-09-22T02:16:23.757Z,1.50
2022-09-22T02:21:25.308Z,1.33
2022-09-22T02:26:28.284Z,1.20
2022-09-22T02:31:31.711Z,1.75
2022-09-22T02:37:00.273Z,1.40
2022-09-22T02:42:27.760Z,1.40
2022-09-22T02:47:57.457Z,1.50
2022-09-22T02:53:02.976Z,1.33
2022-09-22T02:58:04.336Z,1.30
2022-09-22T03:03:05.698Z,1.50
2022-09-22T03:08:07.079Z,1.30
2022-09-22T03:13:16.001Z,1.50
2022-09-22T03:18:18.373Z,1.25
2022-09-22T03:23:19.723Z,1.40
2022-09-22T03:28:21.317Z,1.50
2022-09-22T03:33:22.720Z,1.35
2022-09-22T03:38:24.091Z,1.15
2022-09-22T03:43:25.451Z,1.20
2022-09-22T03:48:26.900Z,1.42
2022-09-22T03:53:28.580Z,1.30
2022-09-22T03:58:29.932Z,1.25
2022-09-22T04:03:31.573Z,1.10
2022-09-22T04:08:32.940Z,1.30
2022-09-22T04:13:35.333Z,1.33
2022-09-22T04:18:40.022Z,1.50
2022-09-22T04:23:41.388Z,1.63
2022-09-22T04:28:42.761Z,1.60
2022-09-22T04:33:44.564Z,1.63
2022-09-22T04:38:45.936Z,1.45
2022-09-22T04:43:47.300Z,1.50
2022-09-22T04:48:48.660Z,1.40
2022-09-22T04:53:50.042Z,1.60
2022-09-22T04:58:51.404Z,1.50
2022-09-22T05:03:53.240Z,1.20
2022-09-22T05:08:55.393Z,1.38
2022-09-22T05:13:58.530Z,1.42
2022-09-22T05:18:59.897Z,1.50
2022-09-22T05:24:01.664Z,1.30
2022-09-22T05:29:03.024Z,1.63
2022-09-22T05:34:04.379Z,1.20
2022-09-22T05:39:05.773Z,1.40
2022-09-22T05:44:07.197Z,1.35
2022-09-22T05:49:08.560Z,1.30
2022-09-22T05:54:09.997Z,1.38
2022-09-22T05:59:11.366Z,1.45
2022-09-22T06:04:12.727Z,1.80
2022-09-22T06:09:14.129Z,1.63
2022-09-22T06:14:15.480Z,1.50
2022-09-22T06:19:16.840Z,1.52
2022-09-22T06:24:18.364Z,1.63
2022-09-22T06:29:19.853Z,2.00
2022-09-22T06:34:21.216Z,1.75
2022-09-22T06:39:23.297Z,1.45
2022-09-22T06:44:25.226Z,1.80
2022-09-22T06:49:26.471Z,1.48
2022-09-22T06:54:27.832Z,1.45
2022-09-22T06:59:29.348Z,1.85
2022-09-22T07:04:30.714Z,1.80
2022-09-22T07:09:32.173Z,2.08
2022-09-22T07:14:33.546Z,1.60
2022-09-22T07:19:36.380Z,1.58
2022-09-22T07:24:37.589Z,1.90
2022-09-22T07:29:38.984Z,2.10
2022-09-22T07:34:40.345Z,1.70
2022-09-22T07:39:45.127Z,1.75
2022-09-22T07:45:05.257Z,1.95
2022-09-22T07:50:06.968Z,1.80
2022-09-22T07:55:08.430Z,1.63
2022-09-22T08:00:10.634Z,1.73
2022-09-22T08:05:11.993Z,1.95
2022-09-22T08:10:13.432Z,1.83
2022-09-22T08:15:14.843Z,1.63
2022-09-22T08:20:16.733Z,1.70
2022-09-22T08:25:18.139Z,1.77
2022-09-22T08:30:19.760Z,1.50
2022-09-22T08:35:21.187Z,1.90
2022-09-22T08:40:23.454Z,1.50
2022-09-22T08:45:27.208Z,1.70
2022-09-22T08:51:05.462Z,1.40
2022-09-22T08:56:31.763Z,1.65
2022-09-22T09:02:17.954Z,1.67
2022-09-22T09:07:31.964Z,1.35
2022-09-22T09:12:44.518Z,1.38
2022-09-22T09:17:46.208Z,1.30
2022-09-22T09:22:57.093Z,1.40
2022-09-22T09:28:00.723Z,1.30
2022-09-22T09:33:02.080Z,1.40
2022-09-22T09:38:03.436Z,1.45
2022-09-22T09:43:05.016Z,1.50
2022-09-22T09:48:19.753Z,1.70
2022-09-22T09:53:30.671Z,1.92
2022-09-22T09:58:50.540Z,1.25
2022-09-22T10:03:54.711Z,1.75
2022-09-22T10:08:56.987Z,1.40
2022-09-22T10:13:58.382Z,1.35
2022-09-22T10:19:05.548Z,1.23
2022-09-22T10:24:41.881Z,0.90
2022-09-22T10:29:43.385Z,1.35
2022-09-22T10:34:48.794Z,1.05
2022-09-22T10:39:51.780Z,1.00
2022-09-22T10:44:53.199Z,1.20
2022-09-22T10:50:41.783Z,1.23
2022-09-22T10:55:49.180Z,0.90
2022-09-22T11:00:50.573Z,0.90
2022-09-22T11:06:13.780Z,0.73
2022-09-22T11:12:05.948Z,0.80
2022-09-22T11:17:31.096Z,1.20
2022-09-22T11:22:58.345Z,1.00
2022-09-22T11:28:21.063Z,1.10
2022-09-22T11:33:56.000Z,0.80
2022-09-22T11:39:21.981Z,1.27
2022-09-22T11:44:30.329Z,0.70
2022-09-22T11:49:44.977Z,0.90
2022-09-22T11:55:10.855Z,0.80
2022-09-22T12:00:17.305Z,0.57
2022-09-22T12:05:28.608Z,0.80
2022-09-22T12:10:56.290Z,0.63
2022-09-22T12:16:25.760Z,0.60
2022-09-22T12:21:50.584Z,0.60
2022-09-22T12:26:51.956Z,0.60
2022-09-22T12:31:55.418Z,0.45
2022-09-22T12:37:12.291Z,0.70
2022-09-22T12:42:16.584Z,0.60
2022-09-22T12:47:39.876Z,0.63
2022-09-22T12:52:41.071Z,0.50
2022-09-22T12:57:51.642Z,0.68
2022-09-22T13:02:53.834Z,0.50
2022-09-22T13:07:55.664Z,0.55
2022-09-22T13:13:00.049Z,0.57
2022-09-22T13:18:01.407Z,0.50
2022-09-22T13:23:11.840Z,0.57
2022-09-22T13:28:24.994Z,0.40
2022-09-22T13:33:28.072Z,0.40
2022-09-22T13:38:29.689Z,0.60
2022-09-22T13:43:37.138Z,0.57
2022-09-22T13:48:38.491Z,0.57
2022-09-22T13:53:39.861Z,0.55
2022-09-22T13:58:41.660Z,0.70
2022-09-22T14:03:43.227Z,0.90
2022-09-22T14:08:45.312Z,0.70
2022-09-22T14:13:52.595Z,0.73
2022-09-22T14:19:29.082Z,0.50
2022-09-22T14:29:38.630Z,0.70
2022-09-22T14:34:40.017Z,0.70
2022-09-22T14:39:41.430Z,0.80
2022-09-22T14:44:49.804Z,0.55
2022-09-22T14:50:11.510Z,0.60
2022-09-22T14:55:30.612Z,0.80
2022-09-22T15:00:50.338Z,0.70
2022-09-22T15:05:51.803Z,0.70
2022-09-22T15:10:57.028Z,0.88
2022-09-22T15:15:58.662Z,0.60
2022-09-22T15:21:08.899Z,0.85
2022-09-22T15:26:25.203Z,0.77
2022-09-22T15:31:28.083Z,0.75
2022-09-22T15:36:32.631Z,0.70
2022-09-22T15:41:34.675Z,0.50
2022-09-22T15:46:36.951Z,0.50
2022-09-22T15:51:38.325Z,0.90
2022-09-22T15:56:40.189Z,0.70
2022-09-22T16:01:41.549Z,0.60
2022-09-22T16:06:44.405Z,0.60
2022-09-22T16:11:45.940Z,0.52
2022-09-22T16:16:47.299Z,0.40
2022-09-22T16:21:50.244Z,0.50
2022-09-22T16:26:51.634Z,0.57
2022-09-22T16:31:53.602Z,0.50
2022-09-22T16:36:55.049Z,0.70
2022-09-22T16:41:57.508Z,0.60
2022-09-22T16:46:58.949Z,0.80
2022-09-22T16:52:00.510Z,0.70
2022-09-22T16:57:01.872Z,0.60
2022-09-22T17:02:03.549Z,0.70
2022-09-22T17:07:05.512Z,0.52
2022-09-22T17:12:08.219Z,0.70
2022-09-22T17:17:09.861Z,0.50
2022-09-22T17:22:11.804Z,0.52
2022-09-22T17:27:13.172Z,0.57
2022-09-22T17:32:14.969Z,0.95
2022-09-22T17:37:16.360Z,0.77
2022-09-22T17:42:17.563Z,1.02
2022-09-22T17:47:37.572Z,1.10
2022-09-22T17:52:57.197Z,0.80
2022-09-22T17:57:58.553Z,1.00
2022-09-22T18:03:00.110Z,1.00
2022-09-22T18:08:01.646Z,1.00
2022-09-22T18:13:04.166Z,1.17
2022-09-22T18:18:05.574Z,1.10
2022-09-22T18:23:06.968Z,1.25
2022-09-22T18:28:08.325Z,0.90
2022-09-22T18:33:10.707Z,1.25
2022-09-22T18:38:12.060Z,1.20
2022-09-22T18:43:13.419Z,1.23
2022-09-22T18:48:17.349Z,1.40
2022-09-22T18:53:21.949Z,1.35
2022-09-22T18:58:23.336Z,1.52
2022-09-22T19:03:24.801Z,1.70
2022-09-22T19:08:27.119Z,1.50
2022-09-22T19:13:28.481Z,1.48
2022-09-22T19:18:29.842Z,2.08
2022-09-22T19:23:32.341Z,1.70
2022-09-22T19:28:33.868Z,1.85
2022-09-22T19:33:35.321Z,2.10
2022-09-22T19:38:36.676Z,1.70
2022-09-22T19:43:38.041Z,1.80
2022-09-22T19:48:39.416Z,1.70
2022-09-22T19:53:40.786Z,1.83
2022-09-22T19:58:42.145Z,1.80
2022-09-22T20:03:43.556Z,1.90
2022-09-22T20:08:44.913Z,1.77
2022-09-22T20:14:04.864Z,1.70
2022-09-22T20:19:06.469Z,2.00
2022-09-22T20:24:10.300Z,1.80
2022-09-22T20:29:13.060Z,1.80
2022-09-22T20:34:15.006Z,2.30
2022-09-22T20:39:16.396Z,2.13
2022-09-22T20:44:17.820Z,1.92
2022-09-22T20:49:19.856Z,2.00
2022-09-22T20:54:22.830Z,2.00
2022-09-22T20:59:24.243Z,2.13
2022-09-22T21:04:25.608Z,2.20
2022-09-22T21:09:45.285Z,2.10
2022-09-22T21:14:46.676Z,1.90
2022-09-22T21:19:48.108Z,2.08
2022-09-22T21:24:49.929Z,2.20
2022-09-22T21:29:51.333Z,2.08
2022-09-22T21:34:52.767Z,1.98
2022-09-22T21:39:54.159Z,2.28
2022-09-22T21:44:55.544Z,2.13
2022-09-22T21:49:56.908Z,2.28
2022-09-22T21:54:58.274Z,1.88
2022-09-22T21:59:59.637Z,1.90
2022-09-22T22:05:01.003Z,1.80
2022-09-22T22:10:02.792Z,1.48
2022-09-22T22:15:05.041Z,1.90
2022-09-22T22:20:06.527Z,1.90
2022-09-22T22:25:12.621Z,1.70
2022-09-22T22:30:14.040Z,2.20
2022-09-22T22:35:15.404Z,1.70
2022-09-22T22:40:16.804Z,1.95
2022-09-22T22:45:18.246Z,1.80
2022-09-22T22:50:19.861Z,1.73
2022-09-22T22:55:23.936Z,1.63
2022-09-22T23:00:25.345Z,1.90
2022-09-22T23:05:27.745Z,1.85
2022-09-22T23:10:31.133Z,1.90
2022-09-22T23:15:32.652Z,1.90
2022-09-22T23:20:34.075Z,1.85
2022-09-22T23:25:36.068Z,1.83
2022-09-22T23:30:37.480Z,1.58
2022-09-22T23:35:39.984Z,1.60
2022-09-22T23:40:42.463Z,2.10
2022-09-22T23:45:43.905Z,1.63
2022-09-22T23:50:46.173Z,2.10
2022-09-22T23:55:47.541Z,1.55
